createdAt,value
2018-09-20T00:02:28.430Z,4.00
2018-09-20T00:07:31.926Z,5.00
2018-09-20T00:12:35.502Z,3.97
2018-09-20T00:17:39.175Z,5.40
2018-09-20T00:22:43.049Z,4.93
2018-09-20T00:27:46.734Z,5.43
2018-09-20T00:32:50.331Z,5.17
2018-09-20T00:37:54.153Z,5.43
2018-09-20T00:42:57.776Z,5.27
2018-09-20T00:48:01.892Z,4.73
2018-09-20T00:53:05.446Z,4.43
2018-09-20T00:58:09.179Z,5.43
2018-09-20T01:03:12.859Z,6.13
2018-09-20T01:08:16.430Z,5.93
2018-09-20T01:13:20.199Z,6.90
2018-09-20T01:18:23.814Z,5.23
2018-09-20T01:23:27.373Z,5.13
2018-09-20T01:28:30.913Z,5.73
2018-09-20T01:33:34.438Z,5.33
2018-09-20T01:38:38.114Z,6.07
2018-09-20T01:43:41.698Z,4.50
2018-09-20T01:48:45.328Z,6.17
2018-09-20T01:53:48.903Z,6.03
2018-09-20T01:58:54.081Z,6.43
2018-09-20T02:03:57.972Z,6.20
2018-09-20T02:09:01.573Z,6.00
2018-09-20T02:14:06.005Z,5.77
2018-09-20T02:19:09.635Z,5.03
2018-09-20T02:24:13.349Z,5.07
2018-09-20T02:29:16.906Z,7.47
2018-09-20T02:34:20.543Z,5.50
2018-09-20T02:39:24.246Z,5.80
2018-09-20T02:44:28.187Z,5.60
2018-09-20T02:49:34.534Z,6.57
2018-09-20T02:54:38.096Z,6.43
2018-09-20T02:59:41.769Z,6.77
2018-09-20T03:04:45.335Z,5.40
2018-09-20T03:09:48.879Z,5.57
2018-09-20T03:14:52.486Z,6.07
2018-09-20T03:19:56.149Z,6.10
2018-09-20T03:24:59.865Z,5.53
2018-09-20T03:30:03.510Z,5.90
2018-09-20T03:35:07.309Z,5.30
2018-09-20T03:40:10.907Z,6.17
2018-09-20T03:45:14.601Z,6.03
2018-09-20T03:50:18.259Z,5.77
2018-09-20T03:55:22.116Z,6.30
2018-09-20T04:00:28.349Z,6.00
2018-09-20T04:05:31.905Z,5.40
2018-09-20T04:10:35.504Z,4.93
2018-09-20T04:15:39.202Z,5.60
2018-09-20T04:20:42.735Z,6.30
2018-09-20T04:25:46.574Z,6.00
2018-09-20T04:30:50.196Z,5.63
2018-09-20T04:35:53.807Z,4.90
2018-09-20T04:40:57.498Z,4.70
2018-09-20T04:46:01.228Z,5.97
2018-09-20T04:51:04.838Z,4.67
2018-09-20T04:56:08.448Z,6.17
2018-09-20T05:01:12.606Z,6.53
2018-09-20T05:06:16.313Z,5.20
2018-09-20T05:11:20.074Z,4.77
2018-09-20T05:16:23.756Z,5.00
2018-09-20T05:21:27.455Z,7.03
2018-09-20T05:26:31.317Z,4.77
2018-09-20T05:31:35.035Z,5.20
2018-09-20T05:36:38.653Z,5.23
2018-09-20T05:41:42.288Z,5.00
2018-09-20T05:46:45.870Z,7.40
2018-09-20T05:51:49.860Z,5.97
2018-09-20T05:56:53.503Z,6.00
2018-09-20T06:01:57.085Z,6.37
2018-09-20T06:07:02.192Z,5.90
2018-09-20T06:12:06.204Z,5.73
2018-09-20T06:17:09.827Z,6.77
2018-09-20T06:22:13.399Z,5.93
2018-09-20T06:27:17.006Z,5.97
2018-09-20T06:32:20.680Z,6.43
2018-09-20T06:37:24.444Z,6.67
2018-09-20T06:42:27.997Z,6.23
2018-09-20T06:47:31.681Z,5.63
2018-09-20T06:52:35.280Z,5.47
2018-09-20T06:57:38.958Z,5.20
2018-09-20T07:02:42.582Z,4.37
2018-09-20T07:07:46.332Z,4.27
2018-09-20T07:12:49.976Z,5.10
2018-09-20T07:17:54.063Z,4.73
2018-09-20T07:22:57.646Z,5.67
2018-09-20T07:28:01.213Z,5.63
2018-09-20T07:33:04.913Z,6.13
2018-09-20T07:38:08.701Z,4.90
2018-09-20T07:43:12.498Z,4.67
2018-09-20T07:48:16.296Z,5.10
2018-09-20T07:53:20.028Z,4.80
2018-09-20T07:58:23.824Z,5.90
2018-09-20T08:03:27.346Z,5.10
2018-09-20T08:08:31.035Z,5.00
2018-09-20T08:13:34.624Z,5.33
2018-09-20T08:18:38.286Z,5.13
2018-09-20T08:23:42.131Z,6.10
2018-09-20T08:28:45.830Z,4.47
2018-09-20T08:33:49.673Z,5.27
2018-09-20T08:38:53.279Z,5.77
2018-09-20T08:43:57.127Z,3.80
2018-09-20T08:49:00.864Z,5.43
2018-09-20T08:54:04.475Z,4.93
2018-09-20T08:59:08.273Z,5.50
2018-09-20T09:04:12.135Z,4.97
2018-09-20T09:09:15.778Z,4.47
2018-09-20T09:14:19.545Z,4.13
2018-09-20T09:19:23.374Z,3.20
2018-09-20T09:24:26.950Z,4.50
2018-09-20T09:29:30.494Z,4.43
2018-09-20T09:34:34.106Z,3.80
2018-09-20T09:39:37.985Z,3.70
2018-09-20T09:44:41.530Z,4.23
2018-09-20T09:49:45.148Z,3.63
2018-09-20T09:54:48.977Z,5.17
2018-09-20T09:59:52.746Z,4.77
2018-09-20T10:04:57.343Z,3.53
2018-09-20T10:10:01.044Z,4.60
2018-09-20T10:15:04.632Z,4.03
2018-09-20T10:20:08.232Z,4.00
2018-09-20T10:25:11.845Z,3.67
2018-09-20T10:30:17.539Z,4.00
2018-09-20T10:35:21.277Z,3.67
2018-09-20T10:40:24.874Z,3.37
2018-09-20T10:45:28.411Z,3.40
2018-09-20T10:50:32.240Z,4.13
2018-09-20T10:55:35.922Z,3.67
2018-09-20T11:00:39.701Z,3.40
2018-09-20T11:05:43.401Z,3.27
2018-09-20T11:10:46.987Z,3.50
2018-09-20T11:15:50.636Z,3.20
2018-09-20T11:20:54.234Z,2.80
2018-09-20T11:26:05.735Z,3.33
2018-09-20T11:31:24.157Z,4.00
2018-09-20T11:41:57.794Z,4.20
2018-09-20T11:47:08.192Z,2.60
2018-09-20T11:52:11.787Z,2.87
2018-09-20T11:57:15.439Z,3.50
2018-09-20T12:02:24.662Z,2.97
2018-09-20T12:07:33.077Z,3.23
2018-09-20T12:12:51.571Z,4.13
2018-09-20T12:17:55.226Z,2.63
2018-09-20T12:22:58.753Z,3.17
2018-09-20T12:28:02.327Z,3.57
2018-09-20T12:33:05.988Z,4.00
2018-09-20T12:38:09.737Z,3.23
2018-09-20T12:43:13.302Z,4.97
2018-09-20T12:48:17.024Z,4.20
2018-09-20T12:53:20.578Z,3.60
2018-09-20T12:58:29.431Z,3.87
2018-09-20T13:03:32.993Z,4.10
2018-09-20T13:08:36.553Z,4.00
2018-09-20T13:13:40.560Z,3.40
2018-09-20T13:18:44.165Z,3.60
2018-09-20T13:23:47.744Z,3.03
2018-09-20T13:28:51.290Z,3.13
2018-09-20T13:33:55.037Z,3.43
2018-09-20T13:38:58.650Z,3.33
2018-09-20T13:44:02.265Z,4.27
2018-09-20T13:49:05.839Z,3.20
2018-09-20T13:54:09.499Z,3.10
2018-09-20T13:59:13.123Z,3.00
2018-09-20T14:04:16.843Z,2.80
2018-09-20T14:09:20.415Z,3.27
2018-09-20T14:14:24.009Z,3.27
2018-09-20T14:19:27.607Z,2.90
2018-09-20T14:24:31.231Z,4.10
2018-09-20T14:29:34.769Z,3.43
2018-09-20T14:34:38.445Z,3.37
2018-09-20T14:39:41.974Z,2.47
2018-09-20T14:44:45.884Z,3.30
2018-09-20T14:49:49.569Z,3.13
2018-09-20T14:54:53.169Z,2.87
2018-09-20T14:59:57.149Z,2.90
2018-09-20T15:05:00.759Z,2.83
2018-09-20T15:10:04.544Z,3.17
2018-09-20T15:15:09.135Z,3.40
2018-09-20T15:20:12.933Z,2.63
2018-09-20T15:25:16.463Z,2.97
2018-09-20T15:30:24.976Z,2.90
2018-09-20T15:35:28.483Z,3.23
2018-09-20T15:40:32.177Z,2.90
2018-09-20T15:45:36.039Z,3.13
2018-09-20T15:50:39.597Z,2.67
2018-09-20T15:55:43.315Z,3.07
2018-09-20T16:00:46.862Z,2.83
2018-09-20T16:05:50.496Z,2.73
2018-09-20T16:10:54.068Z,3.10
2018-09-20T16:15:57.684Z,2.60
2018-09-20T16:21:01.207Z,3.00
2018-09-20T16:26:05.065Z,3.13
2018-09-20T16:31:32.158Z,3.27
2018-09-20T16:36:46.281Z,2.33
2018-09-20T16:41:53.368Z,3.30
2018-09-20T16:46:57.184Z,3.07
2018-09-20T16:52:00.758Z,3.10
2018-09-20T16:57:04.323Z,2.77
2018-09-20T17:02:07.877Z,3.83
2018-09-20T17:07:11.569Z,3.27
2018-09-20T17:12:15.193Z,3.07
2018-09-20T17:17:18.760Z,3.27
2018-09-20T17:22:22.612Z,4.70
2018-09-20T17:27:58.286Z,3.63
2018-09-20T17:33:01.939Z,2.50
2018-09-20T17:38:07.259Z,3.00
2018-09-20T17:43:14.733Z,3.40
2018-09-20T17:48:18.537Z,3.43
2018-09-20T17:53:22.483Z,3.30
2018-09-20T17:58:26.400Z,3.73
2018-09-20T18:03:30.065Z,3.37
2018-09-20T18:08:33.942Z,3.43
2018-09-20T18:13:37.914Z,3.90
2018-09-20T18:18:41.467Z,3.00
2018-09-20T18:23:45.181Z,9.57
2018-09-20T18:28:48.923Z,3.43
2018-09-20T18:33:52.537Z,3.40
2018-09-20T18:38:56.090Z,3.20
2018-09-20T18:43:59.753Z,4.13
2018-09-20T18:49:03.265Z,3.23
2018-09-20T18:54:07.147Z,3.50
2018-09-20T18:59:10.733Z,4.10
2018-09-20T19:04:14.314Z,3.67
2018-09-20T19:09:17.915Z,2.43
2018-09-20T19:14:21.417Z,2.87
2018-09-20T19:19:25.005Z,3.50
2018-09-20T19:24:28.521Z,3.03
2018-09-20T19:29:32.077Z,3.80
2018-09-20T19:34:35.706Z,4.33
2018-09-20T19:39:39.396Z,3.90
2018-09-20T19:44:42.991Z,4.47
2018-09-20T19:49:46.650Z,4.40
2018-09-20T19:54:50.208Z,3.93
2018-09-20T19:59:53.739Z,5.20
2018-09-20T20:04:57.357Z,5.37
2018-09-20T20:10:00.954Z,4.00
2018-09-20T20:15:04.590Z,3.90
2018-09-20T20:20:08.207Z,4.67
2018-09-20T20:25:11.734Z,4.57
2018-09-20T20:30:22.938Z,4.00
2018-09-20T20:35:26.526Z,4.47
2018-09-20T20:40:30.065Z,5.03
2018-09-20T20:45:33.610Z,3.87
2018-09-20T20:50:37.146Z,3.93
2018-09-20T20:55:41.021Z,3.73
2018-09-20T21:00:44.664Z,3.50
2018-09-20T21:05:48.652Z,3.93
2018-09-20T21:10:52.319Z,4.07
2018-09-20T21:15:56.016Z,3.20
2018-09-20T21:20:59.671Z,3.97
2018-09-20T21:26:03.363Z,4.60
2018-09-20T21:31:07.235Z,4.10
2018-09-20T21:36:10.986Z,3.83
2018-09-20T21:41:14.827Z,3.70
2018-09-20T21:46:18.413Z,3.63
2018-09-20T21:51:22.471Z,3.27
2018-09-20T21:56:26.039Z,3.70
2018-09-20T22:01:34.417Z,4.67
2018-09-20T22:06:38.003Z,4.50
2018-09-20T22:11:42.260Z,3.10
2018-09-20T22:16:45.861Z,4.13
2018-09-20T22:21:49.574Z,3.40
2018-09-20T22:26:53.386Z,4.60
2018-09-20T22:31:57.240Z,4.30
2018-09-20T22:37:00.870Z,4.20
2018-09-20T22:42:04.546Z,4.13
2018-09-20T22:47:08.258Z,3.63
2018-09-20T22:52:11.892Z,4.67
2018-09-20T22:57:15.664Z,3.93
2018-09-20T23:02:19.400Z,4.13
2018-09-20T23:07:23.103Z,4.53
2018-09-20T23:12:26.695Z,4.47
2018-09-20T23:17:30.388Z,4.77
2018-09-20T23:22:34.148Z,4.50
2018-09-20T23:27:37.702Z,3.97
2018-09-20T23:32:41.448Z,3.83
2018-09-20T23:37:45.044Z,4.57
2018-09-20T23:42:48.648Z,4.03
2018-09-20T23:47:52.318Z,4.23
2018-09-20T23:52:55.905Z,4.07
2018-09-20T23:57:59.503Z,3.47
